sensor_id;sensor_type;location;lat;lon;timestamp;temperature;humidity
53904;DHT22;39812;52.430;16.936;2022-08-19T00:01:26;22.90;99.90
53904;DHT22;39812;52.430;16.936;2022-08-19T00:03:52;22.80;99.90
53904;DHT22;39812;52.430;16.936;2022-08-19T00:06:17;22.80;99.90
53904;DHT22;39812;52.430;16.936;2022-08-19T00:08:43;22.70;99.90
53904;DHT22;39812;52.430;16.936;2022-08-19T00:11:09;22.80;99.90
53904;DHT22;39812;52.430;16.936;2022-08-19T00:13:35;22.90;99.90
53904;DHT22;39812;52.430;16.936;2022-08-19T00:16:01;22.80;99.90
53904;DHT22;39812;52.430;16.936;2022-08-19T00:18:27;22.90;99.90
53904;DHT22;39812;52.430;16.936;2022-08-19T00:20:53;22.90;99.90
53904;DHT22;39812;52.430;16.936;2022-08-19T00:23:18;23.00;99.90
53904;DHT22;39812;52.430;16.936;2022-08-19T00:25:44;23.00;99.90
53904;DHT22;39812;52.430;16.936;2022-08-19T00:28:10;23.00;99.90
53904;DHT22;39812;52.430;16.936;2022-08-19T00:30:36;23.00;99.90
53904;DHT22;39812;52.430;16.936;2022-08-19T00:33:02;23.10;99.90
53904;DHT22;39812;52.430;16.936;2022-08-19T00:35:28;23.10;99.90
53904;DHT22;39812;52.430;16.936;2022-08-19T00:37:54;23.10;99.90
53904;DHT22;39812;52.430;16.936;2022-08-19T00:40:20;23.10;99.90
53904;DHT22;39812;52.430;16.936;2022-08-19T00:42:46;23.20;99.90
53904;DHT22;39812;52.430;16.936;2022-08-19T00:45:16;23.30;99.90
53904;DHT22;39812;52.430;16.936;2022-08-19T00:47:43;23.30;99.90
53904;DHT22;39812;52.430;16.936;2022-08-19T00:50:11;23.30;99.90
53904;DHT22;39812;52.430;16.936;2022-08-19T00:52:41;23.30;99.90
53904;DHT22;39812;52.430;16.936;2022-08-19T00:55:13;23.30;99.90
53904;DHT22;39812;52.430;16.936;2022-08-19T00:57:43;23.40;99.90
53904;DHT22;39812;52.430;16.936;2022-08-19T01:00:12;23.30;99.90
53904;DHT22;39812;52.430;16.936;2022-08-19T01:02:40;23.40;99.90
53904;DHT22;39812;52.430;16.936;2022-08-19T01:05:08;23.40;99.90
53904;DHT22;39812;52.430;16.936;2022-08-19T01:07:37;23.50;99.90
53904;DHT22;39812;52.430;16.936;2022-08-19T01:10:07;23.40;99.90
53904;DHT22;39812;52.430;16.936;2022-08-19T01:12:33;23.40;99.90
53904;DHT22;39812;52.430;16.936;2022-08-19T01:14:59;23.40;99.90
53904;DHT22;39812;52.430;16.936;2022-08-19T01:17:25;23.40;99.90
53904;DHT22;39812;52.430;16.936;2022-08-19T01:19:51;23.40;99.90
53904;DHT22;39812;52.430;16.936;2022-08-19T01:24:48;23.40;99.90
53904;DHT22;39812;52.430;16.936;2022-08-19T01:27:13;23.30;99.90
53904;DHT22;39812;52.430;16.936;2022-08-19T01:29:42;23.40;99.90
53904;DHT22;39812;52.430;16.936;2022-08-19T01:32:12;23.40;99.90
53904;DHT22;39812;52.430;16.936;2022-08-19T01:34:39;23.40;99.90
53904;DHT22;39812;52.430;16.936;2022-08-19T01:37:11;23.40;99.90
53904;DHT22;39812;52.430;16.936;2022-08-19T01:39:39;23.40;99.90
53904;DHT22;39812;52.430;16.936;2022-08-19T01:42:05;23.40;99.90
53904;DHT22;39812;52.430;16.936;2022-08-19T01:44:32;23.40;99.90
53904;DHT22;39812;52.430;16.936;2022-08-19T01:46:58;23.40;99.90
53904;DHT22;39812;52.430;16.936;2022-08-19T01:49:24;23.30;99.90
53904;DHT22;39812;52.430;16.936;2022-08-19T01:51:51;23.40;99.90
53904;DHT22;39812;52.430;16.936;2022-08-19T01:54:18;23.30;99.90
53904;DHT22;39812;52.430;16.936;2022-08-19T01:56:44;23.20;99.90
53904;DHT22;39812;52.430;16.936;2022-08-19T01:59:15;23.10;99.90
53904;DHT22;39812;52.430;16.936;2022-08-19T02:01:41;23.00;99.90
53904;DHT22;39812;52.430;16.936;2022-08-19T02:04:08;23.00;99.90
53904;DHT22;39812;52.430;16.936;2022-08-19T02:06:33;22.90;99.90
53904;DHT22;39812;52.430;16.936;2022-08-19T02:08:59;22.80;99.90
53904;DHT22;39812;52.430;16.936;2022-08-19T02:11:27;22.70;99.90
53904;DHT22;39812;52.430;16.936;2022-08-19T02:13:53;22.60;99.90
53904;DHT22;39812;52.430;16.936;2022-08-19T02:16:20;22.50;99.90
53904;DHT22;39812;52.430;16.936;2022-08-19T02:18:46;22.50;99.90
53904;DHT22;39812;52.430;16.936;2022-08-19T02:21:14;22.40;99.90
53904;DHT22;39812;52.430;16.936;2022-08-19T02:23:41;22.40;99.90
53904;DHT22;39812;52.430;16.936;2022-08-19T02:26:07;22.40;99.90
53904;DHT22;39812;52.430;16.936;2022-08-19T02:28:32;22.40;99.90
53904;DHT22;39812;52.430;16.936;2022-08-19T02:30:58;22.40;99.90
53904;DHT22;39812;52.430;16.936;2022-08-19T02:33:26;22.40;99.90
53904;DHT22;39812;52.430;16.936;2022-08-19T02:35:51;22.50;99.90
53904;DHT22;39812;52.430;16.936;2022-08-19T02:38:17;22.50;99.90
53904;DHT22;39812;52.430;16.936;2022-08-19T02:40:53;22.50;99.90
53904;DHT22;39812;52.430;16.936;2022-08-19T02:43:20;22.60;99.90
53904;DHT22;39812;52.430;16.936;2022-08-19T02:45:47;22.60;99.90
53904;DHT22;39812;52.430;16.936;2022-08-19T02:48:17;22.70;99.90
53904;DHT22;39812;52.430;16.936;2022-08-19T02:50:43;22.80;99.90
53904;DHT22;39812;52.430;16.936;2022-08-19T02:53:09;22.80;99.90
53904;DHT22;39812;52.430;16.936;2022-08-19T02:55:35;22.80;99.90
53904;DHT22;39812;52.430;16.936;2022-08-19T02:58:00;22.90;99.90
53904;DHT22;39812;52.430;16.936;2022-08-19T03:00:26;22.90;99.90
53904;DHT22;39812;52.430;16.936;2022-08-19T03:02:53;22.90;99.90
53904;DHT22;39812;52.430;16.936;2022-08-19T03:05:18;22.90;99.90
53904;DHT22;39812;52.430;16.936;2022-08-19T03:07:44;22.90;99.90
53904;DHT22;39812;52.430;16.936;2022-08-19T03:10:12;22.80;99.90
53904;DHT22;39812;52.430;16.936;2022-08-19T03:12:38;22.70;99.90
53904;DHT22;39812;52.430;16.936;2022-08-19T03:15:08;22.70;99.90
53904;DHT22;39812;52.430;16.936;2022-08-19T03:17:34;22.60;99.90
53904;DHT22;39812;52.430;16.936;2022-08-19T03:20:00;22.50;99.90
53904;DHT22;39812;52.430;16.936;2022-08-19T03:22:26;22.50;99.90
53904;DHT22;39812;52.430;16.936;2022-08-19T03:24:52;22.50;99.90
53904;DHT22;39812;52.430;16.936;2022-08-19T03:27:18;22.50;99.90
53904;DHT22;39812;52.430;16.936;2022-08-19T03:29:44;22.60;99.90
53904;DHT22;39812;52.430;16.936;2022-08-19T03:32:10;22.50;99.90
53904;DHT22;39812;52.430;16.936;2022-08-19T03:34:37;22.40;99.90
53904;DHT22;39812;52.430;16.936;2022-08-19T03:37:08;22.40;99.90
53904;DHT22;39812;52.430;16.936;2022-08-19T03:39:36;22.30;99.90
53904;DHT22;39812;52.430;16.936;2022-08-19T03:42:03;22.30;99.90
53904;DHT22;39812;52.430;16.936;2022-08-19T03:44:29;22.30;99.90
53904;DHT22;39812;52.430;16.936;2022-08-19T03:46:57;22.20;99.90
53904;DHT22;39812;52.430;16.936;2022-08-19T03:49:26;22.10;99.90
53904;DHT22;39812;52.430;16.936;2022-08-19T03:51:53;22.10;99.90
53904;DHT22;39812;52.430;16.936;2022-08-19T03:54:21;22.10;99.90
53904;DHT22;39812;52.430;16.936;2022-08-19T03:56:49;22.00;99.90
53904;DHT22;39812;52.430;16.936;2022-08-19T03:59:24;22.00;99.90
53904;DHT22;39812;52.430;16.936;2022-08-19T04:01:52;21.90;99.90
53904;DHT22;39812;52.430;16.936;2022-08-19T04:04:17;21.90;99.90
53904;DHT22;39812;52.430;16.936;2022-08-19T04:06:43;21.80;99.90
53904;DHT22;39812;52.430;16.936;2022-08-19T04:09:10;21.70;99.90
53904;DHT22;39812;52.430;16.936;2022-08-19T04:11:45;21.80;99.90
53904;DHT22;39812;52.430;16.936;2022-08-19T04:14:14;21.80;99.90
53904;DHT22;39812;52.430;16.936;2022-08-19T04:16:40;21.80;99.90
53904;DHT22;39812;52.430;16.936;2022-08-19T04:19:06;21.90;99.90
53904;DHT22;39812;52.430;16.936;2022-08-19T04:21:33;21.90;99.90
53904;DHT22;39812;52.430;16.936;2022-08-19T04:23:58;21.90;99.90
53904;DHT22;39812;52.430;16.936;2022-08-19T04:26:29;22.00;99.90
53904;DHT22;39812;52.430;16.936;2022-08-19T04:28:58;22.00;99.90
53904;DHT22;39812;52.430;16.936;2022-08-19T04:31:27;22.20;99.90
53904;DHT22;39812;52.430;16.936;2022-08-19T04:33:54;22.30;99.90
53904;DHT22;39812;52.430;16.936;2022-08-19T04:36:26;22.20;99.90
53904;DHT22;39812;52.430;16.936;2022-08-19T04:38:57;22.30;99.90
53904;DHT22;39812;52.430;16.936;2022-08-19T04:41:23;22.30;99.90
53904;DHT22;39812;52.430;16.936;2022-08-19T04:44:07;22.40;99.90
53904;DHT22;39812;52.430;16.936;2022-08-19T04:46:33;22.60;99.90
53904;DHT22;39812;52.430;16.936;2022-08-19T04:49:00;22.70;99.90
53904;DHT22;39812;52.430;16.936;2022-08-19T04:51:26;22.80;99.90
53904;DHT22;39812;52.430;16.936;2022-08-19T04:53:52;22.80;99.90
53904;DHT22;39812;52.430;16.936;2022-08-19T04:56:20;22.80;99.90
53904;DHT22;39812;52.430;16.936;2022-08-19T04:58:52;22.80;99.90
53904;DHT22;39812;52.430;16.936;2022-08-19T05:01:20;22.90;99.90
53904;DHT22;39812;52.430;16.936;2022-08-19T05:03:47;23.10;99.90
53904;DHT22;39812;52.430;16.936;2022-08-19T05:06:15;23.10;99.90
53904;DHT22;39812;52.430;16.936;2022-08-19T05:08:41;23.10;99.90
53904;DHT22;39812;52.430;16.936;2022-08-19T05:11:15;23.10;99.90
53904;DHT22;39812;52.430;16.936;2022-08-19T05:13:42;23.00;99.90
53904;DHT22;39812;52.430;16.936;2022-08-19T05:16:09;23.00;99.90
53904;DHT22;39812;52.430;16.936;2022-08-19T05:18:36;23.00;99.90
53904;DHT22;39812;52.430;16.936;2022-08-19T05:21:21;23.00;99.90
53904;DHT22;39812;52.430;16.936;2022-08-19T05:24:06;23.00;99.90
53904;DHT22;39812;52.430;16.936;2022-08-19T05:26:42;23.00;99.90
53904;DHT22;39812;52.430;16.936;2022-08-19T05:29:08;23.00;99.90
53904;DHT22;39812;52.430;16.936;2022-08-19T05:31:34;23.10;99.90
53904;DHT22;39812;52.430;16.936;2022-08-19T05:34:01;23.20;99.90
53904;DHT22;39812;52.430;16.936;2022-08-19T05:36:36;23.20;99.90
53904;DHT22;39812;52.430;16.936;2022-08-19T05:39:05;23.20;99.90
53904;DHT22;39812;52.430;16.936;2022-08-19T05:41:31;23.20;99.90
53904;DHT22;39812;52.430;16.936;2022-08-19T05:43:58;23.30;99.90
53904;DHT22;39812;52.430;16.936;2022-08-19T05:46:24;23.40;99.90
53904;DHT22;39812;52.430;16.936;2022-08-19T05:48:49;23.30;99.90
53904;DHT22;39812;52.430;16.936;2022-08-19T05:51:15;23.40;99.90
53904;DHT22;39812;52.430;16.936;2022-08-19T05:53:42;23.50;99.90
53904;DHT22;39812;52.430;16.936;2022-08-19T05:56:13;23.50;99.90
53904;DHT22;39812;52.430;16.936;2022-08-19T05:58:41;23.50;99.90
53904;DHT22;39812;52.430;16.936;2022-08-19T06:01:12;23.60;99.90
53904;DHT22;39812;52.430;16.936;2022-08-19T06:03:37;23.60;99.90
53904;DHT22;39812;52.430;16.936;2022-08-19T06:06:05;23.70;99.90
53904;DHT22;39812;52.430;16.936;2022-08-19T06:08:32;23.80;99.90
53904;DHT22;39812;52.430;16.936;2022-08-19T06:11:21;23.90;99.90
53904;DHT22;39812;52.430;16.936;2022-08-19T06:13:49;24.00;99.90
53904;DHT22;39812;52.430;16.936;2022-08-19T06:16:21;24.10;99.90
53904;DHT22;39812;52.430;16.936;2022-08-19T06:18:48;24.20;99.90
53904;DHT22;39812;52.430;16.936;2022-08-19T06:21:13;24.30;99.90
53904;DHT22;39812;52.430;16.936;2022-08-19T06:23:39;24.40;99.90
53904;DHT22;39812;52.430;16.936;2022-08-19T06:26:05;24.50;99.90
53904;DHT22;39812;52.430;16.936;2022-08-19T06:28:31;24.50;99.90
53904;DHT22;39812;52.430;16.936;2022-08-19T06:30:58;24.60;99.90
53904;DHT22;39812;52.430;16.936;2022-08-19T06:33:23;24.70;99.90
53904;DHT22;39812;52.430;16.936;2022-08-19T06:35:49;24.80;99.90
53904;DHT22;39812;52.430;16.936;2022-08-19T06:38:14;24.80;99.90
53904;DHT22;39812;52.430;16.936;2022-08-19T06:40:40;24.80;99.90
53904;DHT22;39812;52.430;16.936;2022-08-19T06:43:06;24.90;99.90
53904;DHT22;39812;52.430;16.936;2022-08-19T06:45:36;25.00;99.90
53904;DHT22;39812;52.430;16.936;2022-08-19T06:48:03;25.10;99.90
53904;DHT22;39812;52.430;16.936;2022-08-19T06:50:29;25.20;99.80
53904;DHT22;39812;52.430;16.936;2022-08-19T06:52:54;25.20;99.90
53904;DHT22;39812;52.430;16.936;2022-08-19T06:55:20;25.20;99.90
53904;DHT22;39812;52.430;16.936;2022-08-19T06:57:45;25.30;99.80
53904;DHT22;39812;52.430;16.936;2022-08-19T07:00:11;25.40;99.70
53904;DHT22;39812;52.430;16.936;2022-08-19T07:02:41;25.50;99.50
53904;DHT22;39812;52.430;16.936;2022-08-19T07:05:07;25.50;99.20
53904;DHT22;39812;52.430;16.936;2022-08-19T07:07:32;25.50;99.20
53904;DHT22;39812;52.430;16.936;2022-08-19T07:09:58;25.50;99.20
53904;DHT22;39812;52.430;16.936;2022-08-19T07:12:24;25.60;99.10
53904;DHT22;39812;52.430;16.936;2022-08-19T07:14:49;25.70;99.10
53904;DHT22;39812;52.430;16.936;2022-08-19T07:17:15;25.80;98.80
53904;DHT22;39812;52.430;16.936;2022-08-19T07:19:41;25.90;98.70
53904;DHT22;39812;52.430;16.936;2022-08-19T07:22:09;26.00;98.60
53904;DHT22;39812;52.430;16.936;2022-08-19T07:24:35;26.10;98.40
53904;DHT22;39812;52.430;16.936;2022-08-19T07:27:03;26.30;98.20
53904;DHT22;39812;52.430;16.936;2022-08-19T07:29:31;26.40;98.10
53904;DHT22;39812;52.430;16.936;2022-08-19T07:31:59;26.60;97.50
53904;DHT22;39812;52.430;16.936;2022-08-19T07:34:25;26.70;97.40
53904;DHT22;39812;52.430;16.936;2022-08-19T07:36:52;26.80;97.00
53904;DHT22;39812;52.430;16.936;2022-08-19T07:39:24;26.90;97.00
53904;DHT22;39812;52.430;16.936;2022-08-19T07:41:49;26.90;96.90
53904;DHT22;39812;52.430;16.936;2022-08-19T07:44:16;27.10;96.60
53904;DHT22;39812;52.430;16.936;2022-08-19T07:46:45;27.10;96.40
53904;DHT22;39812;52.430;16.936;2022-08-19T07:49:11;27.30;96.30
53904;DHT22;39812;52.430;16.936;2022-08-19T07:51:43;27.40;96.00
53904;DHT22;39812;52.430;16.936;2022-08-19T07:54:08;27.30;95.80
53904;DHT22;39812;52.430;16.936;2022-08-19T07:56:34;27.40;95.80
53904;DHT22;39812;52.430;16.936;2022-08-19T07:59:00;27.50;95.80
53904;DHT22;39812;52.430;16.936;2022-08-19T08:01:27;27.70;95.60
53904;DHT22;39812;52.430;16.936;2022-08-19T08:03:55;27.70;95.60
53904;DHT22;39812;52.430;16.936;2022-08-19T08:06:39;27.90;95.30
53904;DHT22;39812;52.430;16.936;2022-08-19T08:09:35;27.90;95.10
53904;DHT22;39812;52.430;16.936;2022-08-19T08:12:05;28.10;95.00
53904;DHT22;39812;52.430;16.936;2022-08-19T08:14:38;28.00;94.90
53904;DHT22;39812;52.430;16.936;2022-08-19T08:17:05;28.20;94.80
53904;DHT22;39812;52.430;16.936;2022-08-19T08:19:32;28.30;94.70
53904;DHT22;39812;52.430;16.936;2022-08-19T08:21:59;28.40;94.50
53904;DHT22;39812;52.430;16.936;2022-08-19T08:24:30;28.50;94.30
53904;DHT22;39812;52.430;16.936;2022-08-19T08:26:57;28.90;94.00
53904;DHT22;39812;52.430;16.936;2022-08-19T08:29:25;29.00;93.60
53904;DHT22;39812;52.430;16.936;2022-08-19T08:31:51;29.10;93.60
53904;DHT22;39812;52.430;16.936;2022-08-19T08:34:16;29.10;93.40
53904;DHT22;39812;52.430;16.936;2022-08-19T08:36:44;29.00;93.40
53904;DHT22;39812;52.430;16.936;2022-08-19T08:39:13;29.00;93.50
53904;DHT22;39812;52.430;16.936;2022-08-19T08:44:16;29.10;93.00
53904;DHT22;39812;52.430;16.936;2022-08-19T08:46:57;29.30;92.80
53904;DHT22;39812;52.430;16.936;2022-08-19T08:49:48;29.50;92.80
53904;DHT22;39812;52.430;16.936;2022-08-19T08:52:39;29.70;92.50
53904;DHT22;39812;52.430;16.936;2022-08-19T08:55:17;29.70;92.40
53904;DHT22;39812;52.430;16.936;2022-08-19T08:58:05;29.80;92.30
53904;DHT22;39812;52.430;16.936;2022-08-19T09:00:38;29.80;92.00
53904;DHT22;39812;52.430;16.936;2022-08-19T09:03:21;29.70;92.10
53904;DHT22;39812;52.430;16.936;2022-08-19T09:06:00;29.60;92.30
53904;DHT22;39812;52.430;16.936;2022-08-19T09:08:36;29.70;92.00
53904;DHT22;39812;52.430;16.936;2022-08-19T09:11:08;29.80;92.00
53904;DHT22;39812;52.430;16.936;2022-08-19T09:13:49;30.00;91.80
53904;DHT22;39812;52.430;16.936;2022-08-19T09:16:19;30.30;91.40
53904;DHT22;39812;52.430;16.936;2022-08-19T09:18:51;30.50;91.10
53904;DHT22;39812;52.430;16.936;2022-08-19T09:22:00;30.40;90.80
53904;DHT22;39812;52.430;16.936;2022-08-19T09:24:46;30.50;91.00
53904;DHT22;39812;52.430;16.936;2022-08-19T09:27:11;30.90;90.70
53904;DHT22;39812;52.430;16.936;2022-08-19T09:29:38;31.00;90.40
53904;DHT22;39812;52.430;16.936;2022-08-19T09:32:04;31.10;90.00
53904;DHT22;39812;52.430;16.936;2022-08-19T09:34:29;31.00;89.30
53904;DHT22;39812;52.430;16.936;2022-08-19T09:36:55;30.90;89.60
53904;DHT22;39812;52.430;16.936;2022-08-19T09:39:23;30.80;89.50
53904;DHT22;39812;52.430;16.936;2022-08-19T09:41:49;30.70;89.10
53904;DHT22;39812;52.430;16.936;2022-08-19T09:44:15;30.80;88.20
53904;DHT22;39812;52.430;16.936;2022-08-19T09:46:41;30.70;88.90
53904;DHT22;39812;52.430;16.936;2022-08-19T09:49:07;30.80;89.20
53904;DHT22;39812;52.430;16.936;2022-08-19T09:51:33;30.90;88.50
53904;DHT22;39812;52.430;16.936;2022-08-19T09:54:01;31.20;87.80
53904;DHT22;39812;52.430;16.936;2022-08-19T09:56:28;31.30;87.40
53904;DHT22;39812;52.430;16.936;2022-08-19T09:58:54;31.40;86.90
53904;DHT22;39812;52.430;16.936;2022-08-19T10:01:22;31.50;86.40
53904;DHT22;39812;52.430;16.936;2022-08-19T10:03:50;31.60;85.40
53904;DHT22;39812;52.430;16.936;2022-08-19T10:06:18;31.60;84.30
53904;DHT22;39812;52.430;16.936;2022-08-19T10:08:44;31.60;84.30
53904;DHT22;39812;52.430;16.936;2022-08-19T10:11:10;31.70;85.00
53904;DHT22;39812;52.430;16.936;2022-08-19T10:13:35;31.80;84.40
53904;DHT22;39812;52.430;16.936;2022-08-19T10:16:11;31.90;83.20
53904;DHT22;39812;52.430;16.936;2022-08-19T10:18:37;31.80;81.30
53904;DHT22;39812;52.430;16.936;2022-08-19T10:21:08;31.60;81.30
53904;DHT22;39812;52.430;16.936;2022-08-19T10:23:36;31.60;81.70
53904;DHT22;39812;52.430;16.936;2022-08-19T10:26:03;31.70;80.80
53904;DHT22;39812;52.430;16.936;2022-08-19T10:28:32;31.80;80.20
53904;DHT22;39812;52.430;16.936;2022-08-19T10:30:57;32.10;80.40
53904;DHT22;39812;52.430;16.936;2022-08-19T10:33:24;32.40;80.40
53904;DHT22;39812;52.430;16.936;2022-08-19T10:35:59;32.60;78.90
53904;DHT22;39812;52.430;16.936;2022-08-19T10:38:25;32.60;77.90
53904;DHT22;39812;52.430;16.936;2022-08-19T10:40:50;32.60;77.90
53904;DHT22;39812;52.430;16.936;2022-08-19T10:43:16;32.50;77.80
53904;DHT22;39812;52.430;16.936;2022-08-19T10:45:42;32.10;77.60
53904;DHT22;39812;52.430;16.936;2022-08-19T10:48:07;32.20;77.80
53904;DHT22;39812;52.430;16.936;2022-08-19T10:50:33;32.20;78.50
53904;DHT22;39812;52.430;16.936;2022-08-19T10:53:17;32.30;77.70
53904;DHT22;39812;52.430;16.936;2022-08-19T10:55:44;32.60;77.10
53904;DHT22;39812;52.430;16.936;2022-08-19T10:58:28;32.80;76.70
53904;DHT22;39812;52.430;16.936;2022-08-19T11:00:55;32.90;77.00
53904;DHT22;39812;52.430;16.936;2022-08-19T11:03:22;32.80;77.50
53904;DHT22;39812;52.430;16.936;2022-08-19T11:06:00;32.90;76.40
53904;DHT22;39812;52.430;16.936;2022-08-19T11:08:26;32.90;76.10
53904;DHT22;39812;52.430;16.936;2022-08-19T11:10:53;32.80;75.90
53904;DHT22;39812;52.430;16.936;2022-08-19T11:13:22;33.00;75.50
53904;DHT22;39812;52.430;16.936;2022-08-19T11:15:56;33.20;75.00
53904;DHT22;39812;52.430;16.936;2022-08-19T11:18:22;32.80;75.20
53904;DHT22;39812;52.430;16.936;2022-08-19T11:20:47;32.60;76.10
53904;DHT22;39812;52.430;16.936;2022-08-19T11:23:13;32.50;76.20
53904;DHT22;39812;52.430;16.936;2022-08-19T11:25:39;32.50;76.60
53904;DHT22;39812;52.430;16.936;2022-08-19T11:28:04;32.60;75.90
53904;DHT22;39812;52.430;16.936;2022-08-19T11:30:30;33.10;75.40
53904;DHT22;39812;52.430;16.936;2022-08-19T11:32:55;33.70;74.40
53904;DHT22;39812;52.430;16.936;2022-08-19T11:35:21;34.30;73.40
53904;DHT22;39812;52.430;16.936;2022-08-19T11:37:48;35.20;71.80
53904;DHT22;39812;52.430;16.936;2022-08-19T11:40:13;36.00;70.30
53904;DHT22;39812;52.430;16.936;2022-08-19T11:42:42;37.10;69.40
53904;DHT22;39812;52.430;16.936;2022-08-19T11:45:25;37.40;68.10
53904;DHT22;39812;52.430;16.936;2022-08-19T11:47:52;37.30;67.90
53904;DHT22;39812;52.430;16.936;2022-08-19T11:50:17;37.20;67.20
53904;DHT22;39812;52.430;16.936;2022-08-19T11:52:43;38.40;65.70
53904;DHT22;39812;52.430;16.936;2022-08-19T11:55:11;38.20;65.00
53904;DHT22;39812;52.430;16.936;2022-08-19T11:57:37;38.60;63.90
53904;DHT22;39812;52.430;16.936;2022-08-19T12:00:04;38.70;63.60
53904;DHT22;39812;52.430;16.936;2022-08-19T12:02:31;39.50;61.90
53904;DHT22;39812;52.430;16.936;2022-08-19T12:04:57;39.20;61.50
53904;DHT22;39812;52.430;16.936;2022-08-19T12:07:22;38.90;61.10
53904;DHT22;39812;52.430;16.936;2022-08-19T12:09:48;38.60;61.60
53904;DHT22;39812;52.430;16.936;2022-08-19T12:12:13;38.20;61.60
53904;DHT22;39812;52.430;16.936;2022-08-19T12:14:39;37.90;61.50
53904;DHT22;39812;52.430;16.936;2022-08-19T12:17:04;39.10;60.80
53904;DHT22;39812;52.430;16.936;2022-08-19T12:19:32;39.60;59.50
53904;DHT22;39812;52.430;16.936;2022-08-19T12:22:00;40.50;58.10
53904;DHT22;39812;52.430;16.936;2022-08-19T12:24:30;41.10;57.70
53904;DHT22;39812;52.430;16.936;2022-08-19T12:26:57;42.20;56.20
53904;DHT22;39812;52.430;16.936;2022-08-19T12:29:24;43.10;54.70
53904;DHT22;39812;52.430;16.936;2022-08-19T12:31:57;42.80;54.10
53904;DHT22;39812;52.430;16.936;2022-08-19T12:34:27;41.60;54.70
53904;DHT22;39812;52.430;16.936;2022-08-19T12:36:56;43.00;54.40
53904;DHT22;39812;52.430;16.936;2022-08-19T12:39:22;44.40;52.30
53904;DHT22;39812;52.430;16.936;2022-08-19T12:41:48;43.70;51.60
53904;DHT22;39812;52.430;16.936;2022-08-19T12:44:14;43.80;51.80
53904;DHT22;39812;52.430;16.936;2022-08-19T12:46:39;45.20;50.50
53904;DHT22;39812;52.430;16.936;2022-08-19T12:49:14;45.30;50.30
53904;DHT22;39812;52.430;16.936;2022-08-19T12:51:44;42.90;50.80
53904;DHT22;39812;52.430;16.936;2022-08-19T12:54:09;41.30;54.10
53904;DHT22;39812;52.430;16.936;2022-08-19T12:56:36;40.20;56.00
53904;DHT22;39812;52.430;16.936;2022-08-19T12:59:02;37.50;58.90
53904;DHT22;39812;52.430;16.936;2022-08-19T13:01:28;36.30;60.80
53904;DHT22;39812;52.430;16.936;2022-08-19T13:03:58;35.90;62.60
53904;DHT22;39812;52.430;16.936;2022-08-19T13:06:23;36.00;62.90
53904;DHT22;39812;52.430;16.936;2022-08-19T13:08:49;37.50;62.10
53904;DHT22;39812;52.430;16.936;2022-08-19T13:11:16;39.40;59.40
53904;DHT22;39812;52.430;16.936;2022-08-19T13:13:44;39.70;58.20
53904;DHT22;39812;52.430;16.936;2022-08-19T13:16:12;40.00;57.70
53904;DHT22;39812;52.430;16.936;2022-08-19T13:18:40;39.00;58.00
53904;DHT22;39812;52.430;16.936;2022-08-19T13:21:08;38.40;59.10
53904;DHT22;39812;52.430;16.936;2022-08-19T13:23:34;39.10;58.60
53904;DHT22;39812;52.430;16.936;2022-08-19T13:26:03;39.60;57.50
53904;DHT22;39812;52.430;16.936;2022-08-19T13:28:29;39.60;57.00
53904;DHT22;39812;52.430;16.936;2022-08-19T13:31:17;39.50;57.00
53904;DHT22;39812;52.430;16.936;2022-08-19T13:34:01;39.60;57.00
53904;DHT22;39812;52.430;16.936;2022-08-19T13:36:27;40.20;56.70
53904;DHT22;39812;52.430;16.936;2022-08-19T13:38:53;40.00;56.70
53904;DHT22;39812;52.430;16.936;2022-08-19T13:41:19;40.60;56.10
53904;DHT22;39812;52.430;16.936;2022-08-19T13:43:44;40.70;55.80
53904;DHT22;39812;52.430;16.936;2022-08-19T13:46:11;41.10;55.70
53904;DHT22;39812;52.430;16.936;2022-08-19T13:48:39;41.40;54.80
53904;DHT22;39812;52.430;16.936;2022-08-19T13:51:06;41.70;54.80
53904;DHT22;39812;52.430;16.936;2022-08-19T13:53:38;42.20;54.20
53904;DHT22;39812;52.430;16.936;2022-08-19T13:56:09;41.60;54.20
53904;DHT22;39812;52.430;16.936;2022-08-19T13:58:35;41.10;54.80
53904;DHT22;39812;52.430;16.936;2022-08-19T14:01:01;42.30;54.10
53904;DHT22;39812;52.430;16.936;2022-08-19T14:03:27;41.20;54.40
53904;DHT22;39812;52.430;16.936;2022-08-19T14:05:53;40.10;55.50
53904;DHT22;39812;52.430;16.936;2022-08-19T14:08:19;40.50;55.70
53904;DHT22;39812;52.430;16.936;2022-08-19T14:10:44;39.90;55.80
53904;DHT22;39812;52.430;16.936;2022-08-19T14:13:13;40.20;55.90
53904;DHT22;39812;52.430;16.936;2022-08-19T14:15:39;40.70;55.00
53904;DHT22;39812;52.430;16.936;2022-08-19T14:18:05;41.00;54.30
53904;DHT22;39812;52.430;16.936;2022-08-19T14:20:34;40.80;54.40
53904;DHT22;39812;52.430;16.936;2022-08-19T14:23:00;41.50;53.90
53904;DHT22;39812;52.430;16.936;2022-08-19T14:25:28;41.40;54.00
53904;DHT22;39812;52.430;16.936;2022-08-19T14:27:53;42.10;53.70
53904;DHT22;39812;52.430;16.936;2022-08-19T14:30:22;41.20;54.40
53904;DHT22;39812;52.430;16.936;2022-08-19T14:32:50;40.20;54.70
53904;DHT22;39812;52.430;16.936;2022-08-19T14:35:16;39.80;55.80
53904;DHT22;39812;52.430;16.936;2022-08-19T14:37:45;38.70;56.80
53904;DHT22;39812;52.430;16.936;2022-08-19T14:40:11;38.90;56.90
53904;DHT22;39812;52.430;16.936;2022-08-19T14:42:37;39.20;56.70
53904;DHT22;39812;52.430;16.936;2022-08-19T14:45:03;38.30;56.90
53904;DHT22;39812;52.430;16.936;2022-08-19T14:47:30;35.90;59.40
53904;DHT22;39812;52.430;16.936;2022-08-19T14:49:56;34.30;62.90
53904;DHT22;39812;52.430;16.936;2022-08-19T14:52:21;34.20;64.50
53904;DHT22;39812;52.430;16.936;2022-08-19T14:54:47;34.40;63.40
53904;DHT22;39812;52.430;16.936;2022-08-19T14:57:14;34.30;63.70
53904;DHT22;39812;52.430;16.936;2022-08-19T14:59:40;33.80;64.50
53904;DHT22;39812;52.430;16.936;2022-08-19T15:02:06;33.30;65.00
53904;DHT22;39812;52.430;16.936;2022-08-19T15:04:31;33.00;65.90
53904;DHT22;39812;52.430;16.936;2022-08-19T15:06:57;33.10;66.60
53904;DHT22;39812;52.430;16.936;2022-08-19T15:09:23;33.40;65.60
53904;DHT22;39812;52.430;16.936;2022-08-19T15:11:48;33.10;65.60
53904;DHT22;39812;52.430;16.936;2022-08-19T15:14:15;33.10;66.00
53904;DHT22;39812;52.430;16.936;2022-08-19T15:16:42;32.90;66.20
53904;DHT22;39812;52.430;16.936;2022-08-19T15:19:08;32.70;66.90
53904;DHT22;39812;52.430;16.936;2022-08-19T15:21:34;32.20;67.50
53904;DHT22;39812;52.430;16.936;2022-08-19T15:24:00;31.50;68.70
53904;DHT22;39812;52.430;16.936;2022-08-19T15:26:26;31.30;69.60